Time;durP1;ratioP1;P1;durP2;ratioP2;P2;SDS_P1;SDS_P2;PMS_P1;PMS_P2;Temp;Humidity;BMP_temperature;BMP_pressure;BME280_temperature;BME280_humidity;BME280_pressure;Samples;Min_cycle;Max_cycle;Signal;HPM_P1;HPM_P2
2023/03/05 00:01:13;;;;;;;10.45;2.08;;;;;;;5.09;100.00;102194.47;4996232;28;20050;-68
2023/03/05 00:03:40;;;;;;;11.18;2.47;;;;;;;5.11;100.00;102188.25;4995123;28;20050;-68
2023/03/05 00:06:07;;;;;;;8.73;2.60;;;;;;;5.10;100.00;102189.19;4995194;28;20060;-68
2023/03/05 00:08:34;;;;;;;6.85;1.88;;;;;;;5.09;100.00;102181.47;4981826;28;20083;-68
2023/03/05 00:11:03;;;;;;;10.90;2.55;;;;;;;5.14;100.00;102179.47;4987830;28;20451;-68
2023/03/05 00:13:30;;;;;;;5.25;1.80;;;;;;;5.18;100.00;102181.00;4994342;28;20054;-68
2023/03/05 00:15:57;;;;;;;11.02;1.90;;;;;;;5.18;100.00;102180.16;4983253;28;20056;-68
2023/03/05 00:18:24;;;;;;;7.40;1.90;;;;;;;5.17;100.00;102175.88;4995023;28;20054;-68
2023/03/05 00:20:50;;;;;;;9.73;2.00;;;;;;;5.17;100.00;102168.91;4974459;28;20492;-68
2023/03/05 00:23:17;;;;;;;7.55;2.20;;;;;;;5.17;100.00;102168.91;4993699;28;20050;-68
2023/03/05 00:25:45;;;;;;;9.68;2.15;;;;;;;5.18;100.00;102170.59;4990071;28;20050;-68
2023/03/05 00:28:12;;;;;;;10.48;2.50;;;;;;;5.18;100.00;102167.16;4984579;28;20542;-68
2023/03/05 00:30:39;;;;;;;7.38;2.22;;;;;;;5.18;100.00;102168.00;4985098;28;20046;-68
2023/03/05 00:33:05;;;;;;;11.85;2.25;;;;;;;5.10;100.00;102163.19;4975338;28;20836;-68
2023/03/05 00:35:44;;;;;;;10.82;2.05;;;;;;;5.13;100.00;102154.38;4978607;28;20054;-69
2023/03/05 00:38:12;;;;;;;8.95;2.05;;;;;;;5.12;100.00;102157.91;4976455;28;20788;-69
2023/03/05 00:40:40;;;;;;;7.30;2.22;;;;;;;5.14;100.00;102156.06;4997600;28;20049;-68
2023/03/05 00:43:07;;;;;;;11.48;2.25;;;;;;;5.12;100.00;102150.94;4989239;28;20703;-69
2023/03/05 00:45:34;;;;;;;10.18;2.42;;;;;;;5.11;100.00;102159.63;4991242;28;20191;-70
2023/03/05 00:48:01;;;;;;;6.85;2.05;;;;;;;5.13;100.00;102149.16;4991081;28;20050;-70
2023/03/05 00:50:27;;;;;;;6.43;2.17;;;;;;;5.11;100.00;102154.44;4987910;28;20494;-69
2023/03/05 00:52:54;;;;;;;9.85;2.35;;;;;;;5.07;100.00;102145.13;4987463;28;20220;-69
2023/03/05 00:55:21;;;;;;;9.57;2.30;;;;;;;5.07;100.00;102146.88;4985014;28;20061;-70
2023/03/05 00:57:47;;;;;;;12.35;1.92;;;;;;;5.08;100.00;102146.81;4989461;28;20058;-70
2023/03/05 01:00:15;;;;;;;8.85;2.25;;;;;;;5.11;100.00;102138.84;4980869;28;20133;-70
2023/03/05 01:02:42;;;;;;;9.55;2.30;;;;;;;5.15;100.00;102144.72;4974843;28;20502;-69
2023/03/05 01:05:12;;;;;;;8.75;2.25;;;;;;;5.18;100.00;102139.38;4986441;28;20640;-69
2023/03/05 01:07:40;;;;;;;9.68;2.03;;;;;;;5.13;100.00;102144.78;4981157;28;20450;-68
2023/03/05 01:10:07;;;;;;;6.50;1.92;;;;;;;5.18;100.00;102134.19;4984581;28;20038;-69
2023/03/05 01:12:34;;;;;;;9.57;2.05;;;;;;;5.14;100.00;102141.28;4979551;28;20061;-68
2023/03/05 01:15:01;;;;;;;8.05;1.80;;;;;;;5.18;100.00;102139.38;4979980;28;20515;-68
2023/03/05 01:17:27;;;;;;;10.43;2.20;;;;;;;5.20;100.00;102128.91;4977367;28;20058;-68
2023/03/05 01:19:54;;;;;;;6.88;2.17;;;;;;;5.21;100.00;102123.59;4994209;28;20487;-68
2023/03/05 01:22:21;;;;;;;10.65;2.20;;;;;;;5.17;100.00;102123.84;4991560;28;20058;-68
2023/03/05 01:24:47;;;;;;;9.52;2.40;;;;;;;5.16;100.00;102120.41;4990888;28;20081;-68
2023/03/05 01:27:14;;;;;;;11.38;2.50;;;;;;;5.17;100.00;102113.44;5000755;28;20058;-69
2023/03/05 01:29:40;;;;;;;10.95;2.50;;;;;;;5.13;100.00;102107.53;4977273;28;20058;-68
2023/03/05 01:32:07;;;;;;;10.63;2.42;;;;;;;5.14;100.00;102101.44;4980980;28;20061;-68
2023/03/05 01:34:36;;;;;;;10.63;2.50;;;;;;;5.14;100.00;102099.66;4982563;28;20055;-68
2023/03/05 01:37:02;;;;;;;8.63;2.10;;;;;;;5.13;100.00;102100.56;4989454;28;20046;-68
2023/03/05 01:39:29;;;;;;;9.38;2.30;;;;;;;5.11;100.00;102096.38;4994491;28;20057;-68
2023/03/05 01:41:56;;;;;;;5.43;1.85;;;;;;;5.13;100.00;102099.75;4990909;28;20054;-68
2023/03/05 01:44:26;;;;;;;5.40;1.67;;;;;;;5.16;100.00;102097.00;4993020;28;20045;-68
2023/03/05 01:46:52;;;;;;;8.40;1.95;;;;;;;5.12;100.00;102092.88;4981883;28;20764;-68
2023/03/05 01:49:23;;;;;;;10.05;2.00;;;;;;;5.16;100.00;102084.00;5000659;28;20050;-68
2023/03/05 01:51:50;;;;;;;10.85;2.13;;;;;;;5.12;100.00;102080.72;4986639;28;20058;-68
2023/03/05 01:54:19;;;;;;;7.10;1.65;;;;;;;5.15;100.00;102080.56;5000477;28;20053;-68
2023/03/05 01:56:48;;;;;;;9.70;1.83;;;;;;;5.12;100.00;102082.47;4980726;28;20507;-68
2023/03/05 01:59:16;;;;;;;11.10;2.67;;;;;;;5.11;100.00;102075.56;4989210;28;20054;-68
2023/03/05 02:01:46;;;;;;;7.53;2.05;;;;;;;5.11;100.00;102079.00;4999815;28;20058;-67
2023/03/05 02:04:16;;;;;;;7.78;1.88;;;;;;;5.07;100.00;102067.09;4995392;28;20050;-67
2023/03/05 02:06:44;;;;;;;14.00;1.92;;;;;;;5.06;100.00;102069.78;4986499;28;20054;-67
2023/03/05 02:09:11;;;;;;;8.25;2.15;;;;;;;5.02;100.00;102060.44;4996533;28;20054;-67
2023/03/05 02:11:38;;;;;;;10.68;1.80;;;;;;;5.03;100.00;102057.78;4980879;28;20060;-67
2023/03/05 02:14:06;;;;;;;8.07;2.13;;;;;;;4.99;100.00;102047.63;4995626;28;20054;-67
2023/03/05 02:16:36;;;;;;;9.52;1.83;;;;;;;4.97;100.00;102036.47;4992664;28;20417;-67
2023/03/05 02:19:06;;;;;;;9.17;1.80;;;;;;;4.98;100.00;102038.13;4989861;28;20054;-67
2023/03/05 02:21:47;;;;;;;9.32;1.98;;;;;;;4.94;100.00;102034.88;4980072;28;20050;-67
2023/03/05 02:24:16;;;;;;;7.13;1.70;;;;;;;4.90;100.00;102034.19;4982818;28;20480;-67
2023/03/05 02:26:44;;;;;;;12.02;2.47;;;;;;;4.90;100.00;102028.97;4975527;28;20050;-67
2023/03/05 02:29:16;;;;;;;6.10;1.80;;;;;;;4.91;100.00;102027.22;4986478;28;20050;-67
2023/03/05 02:31:42;;;;;;;9.73;1.95;;;;;;;4.79;100.00;102026.09;4976045;28;20056;-66
2023/03/05 02:34:09;;;;;;;11.95;2.35;;;;;;;4.78;100.00;102020.97;4993604;28;20208;-67
2023/03/05 02:36:35;;;;;;;8.98;2.03;;;;;;;4.79;100.00;102022.66;4991483;28;20830;-66
2023/03/05 02:39:03;;;;;;;7.30;1.88;;;;;;;4.78;100.00;102014.00;4978581;28;20046;-67
2023/03/05 02:41:29;;;;;;;8.43;2.38;;;;;;;4.77;100.00;102011.50;4980275;28;20061;-67
2023/03/05 02:43:56;;;;;;;11.82;2.30;;;;;;;4.73;100.00;102006.44;4967681;28;20501;-67
2023/03/05 02:46:22;;;;;;;7.70;1.60;;;;;;;4.75;100.00;102011.56;4993587;28;20054;-67
2023/03/05 02:48:49;;;;;;;8.90;2.17;;;;;;;4.77;100.00;102001.94;4978129;28;20057;-67
2023/03/05 02:51:15;;;;;;;7.38;1.92;;;;;;;4.65;100.00;101995.59;4986472;28;20054;-67
2023/03/05 02:53:42;;;;;;;6.18;1.83;;;;;;;4.68;100.00;101998.03;4980898;28;20054;-67
2023/03/05 02:56:08;;;;;;;9.35;1.90;;;;;;;4.69;100.00;101996.31;4981793;28;20050;-68
2023/03/05 02:58:35;;;;;;;5.95;1.77;;;;;;;4.70;100.00;101993.59;4991390;28;20050;-66
2023/03/05 03:01:01;;;;;;;12.43;1.98;;;;;;;4.70;100.00;101990.16;4981310;28;20058;-67
2023/03/05 03:03:28;;;;;;;9.23;2.95;;;;;;;4.68;100.00;101985.03;4996418;28;20100;-67
2023/03/05 03:05:55;;;;;;;6.38;2.13;;;;;;;4.71;100.00;101976.25;4981075;28;20050;-68
2023/03/05 03:08:21;;;;;;;9.45;2.67;;;;;;;4.72;100.00;101981.38;4986224;28;20054;-67
2023/03/05 03:10:48;;;;;;;10.65;2.35;;;;;;;4.68;100.00;101973.81;4993691;28;20038;-66
2023/03/05 03:13:14;;;;;;;11.25;2.33;;;;;;;4.65;100.00;101969.63;4984672;28;20054;-67
2023/03/05 03:15:41;;;;;;;14.73;3.05;;;;;;;4.64;100.00;101965.31;4990029;28;20065;-67
2023/03/05 03:18:07;;;;;;;10.27;3.53;;;;;;;4.61;100.00;101962.06;4982449;28;20093;-67
2023/03/05 03:20:38;;;;;;;9.50;2.75;;;;;;;4.65;100.00;101953.19;4979335;28;20521;-67
2023/03/05 03:23:05;;;;;;;10.15;2.30;;;;;;;4.60;100.00;101956.00;4987222;28;20054;-67
2023/03/05 03:25:32;;;;;;;10.18;3.05;;;;;;;4.51;100.00;101952.16;4985659;28;20495;-67
2023/03/05 03:27:58;;;;;;;11.07;2.95;;;;;;;4.50;100.00;101957.41;4992039;28;20057;-67
2023/03/05 03:30:25;;;;;;;13.30;2.97;;;;;;;4.52;100.00;101948.63;4978711;28;20054;-67
2023/03/05 03:32:52;;;;;;;11.20;2.60;;;;;;;4.52;100.00;101940.00;4981027;28;20053;-68
2023/03/05 03:35:19;;;;;;;13.70;2.75;;;;;;;4.45;100.00;101942.06;4975351;28;20058;-67
2023/03/05 03:37:46;;;;;;;10.57;2.95;;;;;;;4.47;100.00;101941.97;4981665;28;20102;-67
2023/03/05 03:40:13;;;;;;;10.10;2.88;;;;;;;4.46;100.00;101935.94;4980593;28;20054;-68
2023/03/05 03:42:39;;;;;;;11.82;3.22;;;;;;;4.50;100.00;101934.03;4991936;28;20057;-67
2023/03/05 03:45:06;;;;;;;14.32;3.47;;;;;;;4.53;100.00;101932.13;4988848;28;20057;-67
2023/03/05 03:47:33;;;;;;;9.25;3.20;;;;;;;4.51;100.00;101922.72;4974862;28;20050;-67
2023/03/05 03:49:59;;;;;;;11.98;3.00;;;;;;;4.48;100.00;101926.31;4985219;28;20052;-68
2023/03/05 03:52:26;;;;;;;12.30;3.38;;;;;;;4.46;100.00;101924.72;4980207;28;20042;-67
2023/03/05 03:54:54;;;;;;;9.15;3.17;;;;;;;4.46;100.00;101925.56;4990040;28;20129;-67
2023/03/05 03:57:21;;;;;;;10.50;3.17;;;;;;;4.46;100.00;101917.75;4992288;28;20133;-67
2023/03/05 03:59:49;;;;;;;10.68;3.40;;;;;;;4.47;100.00;101911.66;4982932;28;20101;-68
2023/03/05 04:02:15;;;;;;;9.52;3.25;;;;;;;4.46;100.00;101914.31;4985071;28;20774;-68
2023/03/05 04:04:42;;;;;;;8.90;3.10;;;;;;;4.40;100.00;101914.66;4978996;28;20049;-68
2023/03/05 04:07:09;;;;;;;11.13;2.60;;;;;;;4.32;100.00;101910.69;4996908;28;20896;-68
2023/03/05 04:09:35;;;;;;;10.70;3.10;;;;;;;4.31;100.00;101908.16;4979515;28;20692;-68
2023/03/05 04:12:02;;;;;;;6.85;2.80;;;;;;;4.33;100.00;101907.19;4991141;28;20399;-68
2023/03/05 04:14:28;;;;;;;8.38;3.35;;;;;;;4.35;100.00;101907.94;4983692;28;20058;-69
2023/03/05 04:16:55;;;;;;;11.80;2.90;;;;;;;4.35;100.00;101904.47;4980523;28;20042;-68
2023/03/05 04:19:22;;;;;;;9.85;2.35;;;;;;;4.31;100.00;101901.22;4994580;28;20101;-68
2023/03/05 04:21:48;;;;;;;15.05;3.20;;;;;;;4.35;100.00;101896.69;4994509;28;20046;-68
2023/03/05 04:24:15;;;;;;;7.97;2.75;;;;;;;4.36;100.00;101904.41;4971153;28;20483;-68
2023/03/05 04:26:41;;;;;;;7.00;2.60;;;;;;;4.32;100.00;101902.88;4984854;28;20054;-68
2023/03/05 04:29:08;;;;;;;9.70;2.88;;;;;;;4.33;100.00;101895.94;4999567;28;20061;-68
2023/03/05 04:31:34;;;;;;;10.00;2.70;;;;;;;4.34;100.00;101897.63;4985501;28;20132;-68
2023/03/05 04:34:01;;;;;;;8.40;2.78;;;;;;;4.33;100.00;101895.94;4983882;28;20057;-68
2023/03/05 04:36:27;;;;;;;13.70;2.63;;;;;;;4.34;100.00;101895.84;4992657;28;20049;-68
2023/03/05 04:38:54;;;;;;;9.98;2.05;;;;;;;4.39;100.00;101886.97;4980276;28;20491;-68
2023/03/05 04:41:21;;;;;;;6.53;2.35;;;;;;;4.43;100.00;101878.09;4986854;28;20054;-68
2023/03/05 04:43:47;;;;;;;6.10;1.88;;;;;;;4.38;100.00;101885.31;4987959;28;20046;-68
2023/03/05 04:46:14;;;;;;;11.05;2.80;;;;;;;4.41;100.00;101883.41;4985047;28;20065;-68
2023/03/05 04:48:40;;;;;;;9.07;1.90;;;;;;;4.38;100.00;101885.31;4971145;28;20145;-68
2023/03/05 04:51:07;;;;;;;10.52;2.40;;;;;;;4.37;100.00;101879.25;4984456;28;20557;-68
2023/03/05 04:53:34;;;;;;;7.82;2.28;;;;;;;4.37;100.00;101879.25;4984068;28;20054;-68
2023/03/05 04:56:01;;;;;;;5.15;1.95;;;;;;;4.45;100.00;101873.66;4989137;28;20062;-68
2023/03/05 04:58:27;;;;;;;7.80;2.28;;;;;;;4.48;100.00;101868.31;5005972;28;20064;-68
2023/03/05 05:00:59;;;;;;;4.47;1.80;;;;;;;4.44;100.00;101870.22;4988158;28;20050;-68
2023/03/05 05:03:26;;;;;;;7.38;1.75;;;;;;;4.43;100.00;101870.31;4991150;28;20089;-69
2023/03/05 05:05:57;;;;;;;9.27;2.05;;;;;;;4.44;100.00;101866.81;4984137;28;20054;-68
2023/03/05 05:08:24;;;;;;;7.60;2.00;;;;;;;4.40;100.00;101862.69;4987220;28;20227;-68
2023/03/05 05:11:02;;;;;;;5.85;1.92;;;;;;;4.35;100.00;101861.19;4995164;28;20097;-68
2023/03/05 05:13:29;;;;;;;10.88;1.92;;;;;;;4.33;100.00;101863.03;4977363;28;20068;-68
2023/03/05 05:15:56;;;;;;;8.98;2.20;;;;;;;4.38;100.00;101854.97;4987951;28;20050;-68
2023/03/05 05:18:24;;;;;;;9.82;1.75;;;;;;;4.42;100.00;101855.66;4980801;28;20530;-68
2023/03/05 05:20:51;;;;;;;9.20;2.15;;;;;;;4.36;100.00;101860.25;4981042;28;20054;-68
2023/03/05 05:23:18;;;;;;;7.45;1.83;;;;;;;4.26;100.00;101853.03;4981752;28;20054;-69
2023/03/05 05:25:44;;;;;;;20.83;2.08;;;;;;;4.25;100.00;101843.53;4988285;28;20054;-68
2023/03/05 05:28:11;;;;;;;4.25;1.60;;;;;;;4.24;100.00;101844.47;4986427;28;20054;-68
2023/03/05 05:30:38;;;;;;;9.15;2.03;;;;;;;4.29;100.00;101845.91;4980932;28;20069;-68
2023/03/05 05:33:04;;;;;;;4.90;1.80;;;;;;;4.28;100.00;101844.22;4983042;28;20057;-69
2023/03/05 05:35:31;;;;;;;6.65;2.10;;;;;;;4.30;100.00;101849.34;4970256;28;20093;-68
2023/03/05 05:37:57;;;;;;;7.30;1.63;;;;;;;4.30;100.00;101839.78;4987445;28;20109;-69
2023/03/05 05:40:24;;;;;;;4.88;1.55;;;;;;;4.27;100.00;101841.69;4980452;28;20058;-68
2023/03/05 05:42:50;;;;;;;4.13;1.67;;;;;;;4.29;100.00;101837.25;4994480;28;20053;-68
2023/03/05 05:45:17;;;;;;;8.18;2.28;;;;;;;4.25;100.00;101839.19;4994953;28;20737;-68
2023/03/05 05:47:43;;;;;;;11.90;1.90;;;;;;;4.28;100.00;101840.78;4977561;28;20053;-68
2023/03/05 05:50:10;;;;;;;5.70;1.70;;;;;;;4.30;100.00;101837.19;4991163;28;20407;-68
2023/03/05 05:52:37;;;;;;;7.03;1.95;;;;;;;4.30;100.00;101834.59;4982560;28;20050;-69
2023/03/05 05:55:04;;;;;;;6.00;2.00;;;;;;;4.33;100.00;101841.38;4992669;28;20487;-68
2023/03/05 05:57:30;;;;;;;7.75;2.17;;;;;;;4.30;100.00;101828.56;4988983;28;20054;-68
2023/03/05 05:59:57;;;;;;;5.80;1.85;;;;;;;4.33;100.00;101833.59;4991054;28;20050;-68
2023/03/05 06:02:23;;;;;;;9.10;2.30;;;;;;;4.35;100.00;101836.94;4979957;28;20057;-68
2023/03/05 06:04:50;;;;;;;7.47;2.15;;;;;;;4.29;100.00;101827.75;4984825;28;20050;-68
2023/03/05 06:07:16;;;;;;;7.03;1.90;;;;;;;4.36;100.00;101825.63;4994491;28;20046;-68
2023/03/05 06:09:43;;;;;;;6.30;2.00;;;;;;;4.33;100.00;101834.44;4981906;28;20050;-68
2023/03/05 06:12:10;;;;;;;7.63;1.92;;;;;;;4.32;100.00;101827.56;4996185;28;20054;-68
2023/03/05 06:14:36;;;;;;;4.90;1.70;;;;;;;4.33;100.00;101824.06;4994200;28;20058;-69
2023/03/05 06:17:03;;;;;;;10.35;2.55;;;;;;;4.31;100.00;101825.91;4995697;28;20049;-68
2023/03/05 06:19:29;;;;;;;8.23;1.70;;;;;;;4.35;100.00;101817.03;5000619;28;20370;-69
2023/03/05 06:21:56;;;;;;;5.57;1.60;;;;;;;4.29;100.00;101825.13;4990318;28;20411;-68
2023/03/05 06:24:22;;;;;;;6.88;2.00;;;;;;;4.32;100.00;101821.53;4996701;28;20038;-69
2023/03/05 06:26:49;;;;;;;6.55;1.40;;;;;;;4.25;100.00;101823.59;4986186;28;20456;-70
2023/03/05 06:29:15;;;;;;;3.03;1.45;;;;;;;4.26;100.00;101822.69;4990564;28;20894;-68
2023/03/05 06:31:42;;;;;;;4.90;1.60;;;;;;;4.25;100.00;101825.34;4994649;28;20061;-68
2023/03/05 06:34:09;;;;;;;8.50;1.65;;;;;;;4.22;100.00;101815.97;4988332;28;20067;-68
2023/03/05 06:36:39;;;;;;;8.10;2.55;;;;;;;4.27;100.00;101818.31;4997328;28;20076;-69
2023/03/05 06:39:05;;;;;;;8.05;1.70;;;;;;;4.18;100.00;101821.44;4983166;28;20054;-68
2023/03/05 06:41:32;;;;;;;8.77;1.90;;;;;;;4.16;100.00;101818.91;4979924;28;20054;-68
2023/03/05 06:44:01;;;;;;;10.80;2.72;;;;;;;4.19;100.00;101817.91;4979055;28;20057;-68
2023/03/05 06:46:30;;;;;;;6.85;2.00;;;;;;;4.23;100.00;101817.66;5000089;28;20099;-68
2023/03/05 06:48:59;;;;;;;7.72;1.77;;;;;;;4.28;100.00;101813.06;4990803;28;20058;-68
2023/03/05 06:51:31;;;;;;;7.72;2.28;;;;;;;4.33;100.00;101825.78;4993201;28;20049;-68
2023/03/05 06:54:03;;;;;;;8.00;1.83;;;;;;;4.21;100.00;101819.47;4994329;28;20265;-69
2023/03/05 06:56:30;;;;;;;8.38;1.75;;;;;;;4.18;100.00;101813.63;4985969;28;20914;-68
2023/03/05 06:58:58;;;;;;;7.00;1.63;;;;;;;4.22;100.00;101817.75;4999299;28;20255;-68
2023/03/05 07:01:25;;;;;;;5.40;1.88;;;;;;;4.21;100.00;101824.69;4997610;28;20049;-69
2023/03/05 07:03:53;;;;;;;4.38;1.70;;;;;;;4.23;100.00;101817.66;4986053;28;20069;-69
2023/03/05 07:06:21;;;;;;;7.07;2.08;;;;;;;4.25;100.00;101818.41;4985002;28;20672;-68
2023/03/05 07:08:48;;;;;;;10.60;2.00;;;;;;;4.24;100.00;101811.53;4993579;28;20507;-68
2023/03/05 07:11:18;;;;;;;4.55;1.90;;;;;;;4.30;100.00;101818.19;4987571;28;20065;-68
2023/03/05 07:13:48;;;;;;;5.80;1.80;;;;;;;4.28;100.00;101809.63;4979050;28;20054;-68
2023/03/05 07:16:18;;;;;;;9.88;2.30;;;;;;;4.29;100.00;101806.09;4990953;28;20049;-68
2023/03/05 07:18:45;;;;;;;6.72;1.92;;;;;;;4.22;100.00;101808.19;4987171;28;20082;-68
2023/03/05 07:21:17;;;;;;;11.63;2.13;;;;;;;4.26;100.00;101807.09;4987522;28;20053;-68
2023/03/05 07:23:43;;;;;;;6.03;2.00;;;;;;;4.17;100.00;101802.38;4980765;28;20046;-68
2023/03/05 07:26:10;;;;;;;7.53;2.00;;;;;;;4.22;100.00;101803.00;4984839;28;20096;-68
2023/03/05 07:28:37;;;;;;;5.70;2.10;;;;;;;4.21;100.00;101803.06;4991439;28;20609;-68
2023/03/05 07:31:07;;;;;;;3.25;2.00;;;;;;;4.19;100.00;101803.16;4976392;28;20054;-68
2023/03/05 07:33:35;;;;;;;11.30;3.15;;;;;;;4.23;100.00;101802.06;4986807;28;20101;-69
2023/03/05 07:36:03;;;;;;;5.47;2.22;;;;;;;4.31;100.00;101804.25;4978401;28;20046;-69
2023/03/05 07:38:31;;;;;;;5.93;2.20;;;;;;;4.31;100.00;101799.06;4981937;28;20054;-68
2023/03/05 07:41:09;;;;;;;5.43;2.22;;;;;;;4.46;100.00;101806.03;4981321;28;20042;-69
2023/03/05 07:43:36;;;;;;;7.50;2.33;;;;;;;4.51;100.00;101813.59;4988494;28;20800;-68
2023/03/05 07:46:08;;;;;;;11.77;2.55;;;;;;;4.58;100.00;101798.50;4991266;28;20052;-69
2023/03/05 07:48:35;;;;;;;6.25;2.33;;;;;;;4.62;100.00;101802.59;4962846;28;20515;-69
2023/03/05 07:51:03;;;;;;;7.95;2.58;;;;;;;4.70;100.00;101798.66;4989950;28;20065;-68
2023/03/05 07:53:30;;;;;;;4.45;2.08;;;;;;;4.74;100.00;101796.72;4977221;28;20050;-68
2023/03/05 07:55:56;;;;;;;7.03;2.40;;;;;;;4.78;100.00;101798.25;4987424;28;20443;-68
2023/03/05 07:58:23;;;;;;;6.93;2.08;;;;;;;4.84;100.00;101795.31;4978549;28;20069;-68
2023/03/05 08:00:50;;;;;;;4.80;1.95;;;;;;;4.87;100.00;101787.34;4984541;28;20170;-68
2023/03/05 08:03:17;;;;;;;4.68;1.90;;;;;;;4.88;100.00;101791.63;4976102;28;20054;-69
2023/03/05 08:05:44;;;;;;;6.63;2.20;;;;;;;4.92;100.00;101784.47;4993604;28;20416;-68
2023/03/05 08:08:10;;;;;;;9.15;2.03;;;;;;;4.97;100.00;101789.44;4998260;28;20058;-68
2023/03/05 08:10:37;;;;;;;4.55;2.03;;;;;;;4.89;100.00;101793.28;4986288;28;20054;-68
2023/03/05 08:13:04;;;;;;;5.20;2.08;;;;;;;4.93;100.00;101793.97;4990115;28;20058;-68
2023/03/05 08:15:31;;;;;;;7.30;2.53;;;;;;;4.92;100.00;101787.94;4980500;28;20454;-69
2023/03/05 08:17:58;;;;;;;8.40;2.22;;;;;;;5.03;100.00;101776.06;4980102;28;20050;-69
2023/03/05 08:20:24;;;;;;;8.30;2.50;;;;;;;5.03;100.00;101774.31;4979946;28;20744;-70
2023/03/05 08:22:51;;;;;;;7.95;2.90;;;;;;;5.12;100.00;101781.59;4993794;28;20042;-69
2023/03/05 08:25:18;;;;;;;6.70;2.20;;;;;;;5.12;100.00;101776.41;4989972;28;20054;-68
2023/03/05 08:27:46;;;;;;;5.80;2.45;;;;;;;5.22;100.00;101783.69;4988418;28;20057;-68
2023/03/05 08:30:16;;;;;;;4.20;2.30;;;;;;;5.29;100.00;101782.38;4993119;28;20050;-68
2023/03/05 08:32:43;;;;;;;6.05;2.38;;;;;;;5.34;100.00;101777.75;4980602;28;20124;-68
2023/03/05 08:35:09;;;;;;;5.40;2.72;;;;;;;5.42;100.00;101783.34;4987471;28;20054;-69
2023/03/05 08:37:36;;;;;;;7.60;2.40;;;;;;;5.46;100.00;101774.44;4986251;28;20062;-69
2023/03/05 08:40:03;;;;;;;5.78;2.03;;;;;;;5.53;100.00;101775.75;4990829;28;20052;-69
2023/03/05 08:42:30;;;;;;;5.72;1.90;;;;;;;5.47;100.00;101772.66;4994005;28;20086;-69
2023/03/05 08:44:56;;;;;;;6.68;1.92;;;;;;;5.45;100.00;101771.91;4982746;28;20483;-69
2023/03/05 08:47:25;;;;;;;4.50;2.13;;;;;;;5.46;100.00;101766.63;4986974;28;20062;-69
2023/03/05 08:49:54;;;;;;;3.78;1.58;;;;;;;5.57;100.00;101771.22;4995619;28;20058;-69
2023/03/05 08:52:21;;;;;;;5.30;1.83;;;;;;;5.67;100.00;101774.13;4983780;28;20054;-69
2023/03/05 08:54:47;;;;;;;3.95;1.60;;;;;;;5.80;100.00;101767.25;4983902;28;20596;-69
2023/03/05 08:57:14;;;;;;;4.80;1.52;;;;;;;5.84;100.00;101762.66;4987929;28;20074;-69
2023/03/05 08:59:41;;;;;;;4.75;1.95;;;;;;;5.82;100.00;101760.19;4982967;28;20616;-69
2023/03/05 09:02:10;;;;;;;7.47;1.73;;;;;;;5.93;100.00;101749.09;4978516;28;20046;-69
2023/03/05 09:04:37;;;;;;;5.82;2.05;;;;;;;6.00;100.00;101754.78;4988486;28;20056;-69
2023/03/05 09:07:04;;;;;;;6.53;1.50;;;;;;;6.08;100.00;101748.19;4983007;28;20058;-69
2023/03/05 09:09:31;;;;;;;5.07;1.42;;;;;;;6.17;100.00;101751.16;4988612;28;20125;-69
2023/03/05 09:11:59;;;;;;;4.03;1.30;;;;;;;6.26;100.00;101748.00;4972755;28;20595;-70
2023/03/05 09:14:27;;;;;;;5.70;1.00;;;;;;;6.26;100.00;101748.81;4976165;28;20050;-69
2023/03/05 09:16:55;;;;;;;3.00;1.10;;;;;;;6.27;100.00;101742.69;4995720;28;20504;-69
2023/03/05 09:19:21;;;;;;;6.70;1.27;;;;;;;6.24;100.00;101739.44;4990849;28;20141;-69
2023/03/05 09:21:48;;;;;;;2.75;1.48;;;;;;;6.25;100.00;101736.75;4995694;28;20534;-69
2023/03/05 09:24:14;;;;;;;3.85;1.10;;;;;;;6.22;100.00;101734.31;4982445;28;20053;-69
2023/03/05 09:26:41;;;;;;;2.70;1.17;;;;;;;6.18;100.00;101735.44;4992502;28;20061;-69
2023/03/05 09:29:08;;;;;;;3.72;1.20;;;;;;;6.07;100.00;101743.06;4988397;28;20100;-69
2023/03/05 09:31:36;;;;;;;2.03;1.23;;;;;;;6.03;100.00;101736.38;4987473;28;20047;-69
2023/03/05 09:34:03;;;;;;;3.95;1.52;;;;;;;6.02;100.00;101737.31;4997974;28;20057;-69
2023/03/05 09:36:30;;;;;;;2.33;1.00;;;;;;;5.92;100.00;101732.66;4981885;28;20109;-69
2023/03/05 09:38:57;;;;;;;5.63;1.27;;;;;;;6.07;100.00;101727.44;4990553;28;20057;-69
2023/03/05 09:41:48;;;;;;;4.82;1.33;;;;;;;6.11;100.00;101727.16;4975071;28;20058;-69
2023/03/05 09:44:50;;;;;;;4.95;1.35;;;;;;;6.27;100.00;101734.03;4966323;28;20521;-69
2023/03/05 09:47:17;;;;;;;1.65;1.10;;;;;;;6.38;100.00;101731.59;4978926;28;20624;-69
2023/03/05 09:50:02;;;;;;;3.08;1.23;;;;;;;6.40;100.00;101727.09;4982375;28;20546;-69
2023/03/05 09:52:53;;;;;;;4.38;1.52;;;;;;;6.42;100.00;101724.41;4979167;28;20516;-69
2023/03/05 09:55:28;;;;;;;3.58;1.63;;;;;;;6.57;100.00;101718.22;4985471;28;20524;-70
2023/03/05 09:58:04;;;;;;;7.55;2.20;;;;;;;6.53;100.00;101721.97;4989109;28;20672;-69
2023/03/05 10:00:40;;;;;;;2.17;1.30;;;;;;;6.67;100.00;101713.25;4986860;28;20054;-68
2023/03/05 10:03:17;;;;;;;3.10;1.45;;;;;;;6.68;100.00;101714.91;4989713;28;20046;-68
2023/03/05 10:06:05;;;;;;;5.80;1.80;;;;;;;6.72;100.00;101705.97;4992766;28;20058;-69
2023/03/05 10:09:10;;;;;;;3.55;1.33;;;;;;;6.62;100.00;101705.72;4983000;28;20109;-68
2023/03/05 10:11:40;;;;;;;3.88;1.40;;;;;;;6.68;100.00;101700.13;4955829;28;20058;-68
2023/03/05 10:14:12;;;;;;;3.65;1.20;;;;;;;6.79;100.00;101702.03;4988406;28;20139;-69
2023/03/05 10:16:41;;;;;;;3.80;1.40;;;;;;;6.71;100.00;101694.69;4985592;28;20046;-69
2023/03/05 10:19:25;;;;;;;4.28;1.60;;;;;;;6.72;100.00;101696.38;4983993;28;20050;-68
2023/03/05 10:22:32;;;;;;;5.93;1.85;;;;;;;6.63;100.00;101688.31;4974508;28;20062;-68
2023/03/05 10:25:25;;;;;;;3.65;1.88;;;;;;;6.76;100.00;101690.94;4986853;28;20677;-68
2023/03/05 10:28:00;;;;;;;4.55;1.98;;;;;;;6.71;100.00;101688.66;4979942;28;20050;-68
2023/03/05 10:30:54;;;;;;;4.15;1.65;;;;;;;6.63;100.00;101683.09;4985999;28;20133;-69
2023/03/05 10:33:33;;;;;;;2.58;1.42;;;;;;;6.73;100.00;101674.56;4983539;28;20050;-68
2023/03/05 10:36:19;;;;;;;6.88;2.03;;;;;;;6.86;100.00;101679.84;4986355;28;20060;-69
2023/03/05 10:39:17;;;;;;;4.20;1.80;;;;;;;6.89;100.00;101670.97;4969789;28;20097;-69
2023/03/05 10:42:09;;;;;;;3.87;1.30;;;;;;;6.76;100.00;101667.47;4984306;28;20129;-69
2023/03/05 10:44:50;;;;;;;3.70;1.38;;;;;;;6.80;98.88;101671.56;4975613;28;20503;-69
2023/03/05 10:47:26;;;;;;;4.60;1.65;;;;;;;6.89;100.00;101665.75;4983065;28;20054;-69
2023/03/05 10:49:55;;;;;;;6.13;1.98;;;;;;;6.89;98.58;101670.97;4977390;28;20475;-69
2023/03/05 10:52:34;;;;;;;5.00;1.50;;;;;;;6.93;98.83;101665.44;4977815;28;20448;-68
2023/03/05 10:55:00;;;;;;;5.95;1.98;;;;;;;6.95;99.98;101657.50;4984623;28;20138;-68
2023/03/05 10:57:30;;;;;;;3.85;1.40;;;;;;;6.95;96.75;101660.13;4981760;28;20149;-68
2023/03/05 11:00:12;;;;;;;3.33;1.40;;;;;;;7.01;98.73;101659.69;4995194;28;20137;-68
2023/03/05 11:02:55;;;;;;;2.70;1.67;;;;;;;7.09;97.22;101652.19;4983474;28;20050;-69
2023/03/05 11:05:37;;;;;;;2.97;1.10;;;;;;;7.15;95.61;101645.72;4983704;28;20050;-68
2023/03/05 11:08:22;;;;;;;4.45;1.10;;;;;;;7.23;92.92;101646.06;4968425;28;20054;-68
2023/03/05 11:11:34;;;;;;;3.42;1.33;;;;;;;7.16;92.95;101642.19;4993356;28;20042;-69
2023/03/05 11:14:02;;;;;;;2.03;1.20;;;;;;;7.11;91.39;101632.09;4978441;28;20058;-69
2023/03/05 11:16:44;;;;;;;4.20;1.10;;;;;;;7.12;88.88;101632.91;4985894;28;20050;-69
2023/03/05 11:19:13;;;;;;;1.67;1.02;;;;;;;7.08;86.79;101627.06;4978527;28;20172;-69
2023/03/05 11:21:41;;;;;;;3.38;1.30;;;;;;;7.20;90.69;101622.78;4983371;28;20054;-69
2023/03/05 11:24:13;;;;;;;3.65;1.35;;;;;;;7.29;88.02;101611.72;4985539;28;20053;-69
2023/03/05 11:26:51;;;;;;;3.90;1.40;;;;;;;7.42;86.27;101610.84;4984160;28;20141;-70
2023/03/05 11:29:24;;;;;;;5.63;1.25;;;;;;;7.63;90.11;101606.75;4984344;28;20057;-68
2023/03/05 11:31:52;;;;;;;3.70;1.25;;;;;;;7.67;84.27;101604.75;4984677;28;20100;-67
2023/03/05 11:34:18;;;;;;;3.10;1.00;;;;;;;7.73;82.76;101602.53;4983324;28;20324;-67